Rockville, MD (20848)

6:38 AM EST on November 26, 2014 (GMT -0500)
Twinbrook | Change Station
CLOSE
Current Station
Personal Weather Station
Location: Rockville, MD
Elevation: 377 ft
Nearby Weather Stations
Active Advisory: Winter Weather Advisory

Elev 377 ft 39.08 °N, 77.12 °W | Updated 3 minutes ago

Rain
Rain
41.4 °F
Feels Like 41 °F
N
0.0
Wind Variable Wind from NE
Gusts 3.0 mph

Today
High -- | Low -- °F
--% Chance of Precip.
Yesterday
High -- | Low -- °F
Precip. -- in
7:03 AM 4:47 PM
Waxing Crescent, 19% visible
Pressure 30.11 in
Visibility 7.0 miles
Clouds Overcast 3900 ft
Windchill 41 °F
Dew Point 39 °F
Humidity 91%
Rainfall 0.24 in
Snow Depth Not available.
UV 0 out of 12
Pollen .10 out of 12
Air Quality Not available.
Flu Activity Not available.
METAR KGAI 261135Z 00000KT 7SM OVC039 04/02 A3011 RMK AO1 P0009

More Conditions Fewer Conditions

Pressure 30.11 in
Visibility 7.0 miles
Clouds Overcast 3900 ft
Windchill 41 °F
Dew Point 39 °F
Humidity 91%
Rainfall 0.24 in
Snow Depth Not available.
UV 0 out of 12
Pollen .10 out of 12
Air Quality Not available.
Flu Activity Not available.
METAR KGAI 261135Z 00000KT 7SM OVC039 04/02 A3011 RMK AO1 P0009

More Conditions Fewer Conditions

10-Day Weather Forecast

Almanac

Astronomy

Nov. 26, 2014 Rise Set
Actual Time
Civil Twilight
Nautical Twilight
Astronomical Twilight
Moon
Length of Visible Light
Length of Day
Tomorrow will be .
, % of the Moon is Illuminated

Today's Extremes

State Highs State Lows

Community

WunderPhotos

Upload Photos

1,773,708 photos uploaded!

WunderBlogs® & News

Nearby

Air Quality

  Air Quality AQ Index Pollutant
Not available.

Snow Depth

Station Depth Elevation

Earthquake Activity

City Distance Mag. Time & Date
Minimum magnitude displayed is 2.5.

Coastal Water Temperatures

Place Temperature

Nearby Weather Stations